createdAt,value
2022-12-24T00:00:01.714Z,96468.84
2022-12-24T00:02:28.164Z,96465.16
2022-12-24T00:05:00.630Z,96484.66
2022-12-24T00:07:27.630Z,96473.09
2022-12-24T00:09:53.997Z,96463.31
2022-12-24T00:12:20.441Z,96471.41
2022-12-24T00:14:46.862Z,96478.13
2022-12-24T00:17:13.342Z,96484.22
2022-12-24T00:19:39.773Z,96494.75
2022-12-24T00:22:06.124Z,96475.22
2022-12-24T00:24:32.480Z,96490.75
2022-12-24T00:26:58.915Z,96497.00
2022-12-24T00:29:25.421Z,96501.13
2022-12-24T00:31:51.760Z,96487.88
2022-12-24T00:34:18.190Z,96483.91
2022-12-24T00:36:44.541Z,96501.13
2022-12-24T00:39:10.946Z,96489.22
2022-12-24T00:41:37.317Z,96486.50
2022-12-24T00:44:06.820Z,96494.41
2022-12-24T00:46:34.335Z,96487.56
2022-12-24T00:49:01.912Z,96497.78
2022-12-24T00:51:28.581Z,96507.06
2022-12-24T00:53:55.315Z,96507.97
2022-12-24T00:56:22.674Z,96502.66
2022-12-24T00:58:49.557Z,96498.84
2022-12-24T01:01:16.809Z,96496.84
2022-12-24T01:03:43.694Z,96499.00
2022-12-24T01:06:16.056Z,96501.28
2022-12-24T01:08:43.134Z,96507.22
2022-12-24T01:11:11.205Z,96511.19
2022-12-24T01:13:38.341Z,96517.72
2022-12-24T01:16:14.391Z,96516.81
2022-12-24T01:18:40.829Z,96520.00
2022-12-24T01:21:07.164Z,96523.19
2022-12-24T01:23:33.569Z,96520.75
2022-12-24T01:26:01.619Z,96538.09
2022-12-24T01:28:28.050Z,96532.16
2022-12-24T01:30:54.444Z,96534.72
2022-12-24T01:33:20.949Z,96547.69
2022-12-24T01:35:47.563Z,96540.25
2022-12-24T01:38:14.592Z,96538.56
2022-12-24T01:41:00.719Z,96550.56
2022-12-24T01:43:30.063Z,96552.38
2022-12-24T01:46:01.621Z,96579.38
2022-12-24T01:48:46.538Z,96575.38
2022-12-24T01:51:19.561Z,96580.72
2022-12-24T01:53:50.983Z,96575.97
2022-12-24T01:56:19.389Z,96577.47
2022-12-24T01:58:51.053Z,96593.63
2022-12-24T02:01:18.032Z,96590.81
2022-12-24T02:03:44.651Z,96597.31
2022-12-24T02:06:18.011Z,96588.50
2022-12-24T02:08:45.308Z,96600.50
2022-12-24T02:11:20.553Z,96606.41
2022-12-24T02:13:53.154Z,96597.41
2022-12-24T02:16:38.266Z,96613.44
2022-12-24T02:19:53.669Z,96603.94
2022-12-24T02:22:50.668Z,96614.03
2022-12-24T02:25:32.872Z,96594.63
2022-12-24T02:28:22.847Z,96614.84
2022-12-24T02:30:55.479Z,96615.19
2022-12-24T02:33:52.613Z,96612.94
2022-12-24T02:36:29.828Z,96604.53
2022-12-24T02:39:02.856Z,96606.84
2022-12-24T02:41:55.474Z,96616.19
2022-12-24T02:44:26.000Z,96625.16
2022-12-24T02:46:53.227Z,96628.19
2022-12-24T02:49:19.730Z,96631.59
2022-12-24T02:51:46.080Z,96630.31
2022-12-24T02:54:14.619Z,96637.72
2022-12-24T02:56:51.976Z,96633.31
2022-12-24T02:59:27.446Z,96638.19
2022-12-24T03:02:06.877Z,96641.00
2022-12-24T03:04:46.008Z,96640.00
2022-12-24T03:07:20.363Z,96655.06
2022-12-24T03:10:08.049Z,96650.50
2022-12-24T03:12:40.932Z,96651.09
2022-12-24T03:15:10.052Z,96653.34
2022-12-24T03:17:38.514Z,96658.22
2022-12-24T03:20:08.435Z,96667.53
2022-12-24T03:22:35.746Z,96658.88
2022-12-24T03:25:02.910Z,96652.97
2022-12-24T03:27:32.375Z,96654.16
2022-12-24T03:29:59.313Z,96669.44
2022-12-24T03:32:31.996Z,96671.66
2022-12-24T03:34:58.470Z,96688.94
2022-12-24T03:37:25.577Z,96692.06
2022-12-24T03:39:51.952Z,96688.09
2022-12-24T03:42:18.322Z,96679.84
2022-12-24T03:44:44.763Z,96696.88
2022-12-24T03:47:11.134Z,96690.09
2022-12-24T03:49:37.511Z,96681.72
2022-12-24T03:52:04.046Z,96703.31
2022-12-24T03:54:30.465Z,96704.91
2022-12-24T03:56:56.853Z,96694.41
2022-12-24T03:59:23.214Z,96714.00
2022-12-24T04:01:50.492Z,96707.50
2022-12-24T04:04:17.031Z,96716.81
2022-12-24T04:06:43.388Z,96711.72
2022-12-24T04:09:09.761Z,96717.94
2022-12-24T04:11:36.131Z,96723.13
2022-12-24T04:14:02.600Z,96721.91
2022-12-24T04:16:28.997Z,96726.50
2022-12-24T04:18:55.359Z,96716.25
2022-12-24T04:21:21.780Z,96721.31
2022-12-24T04:23:48.404Z,96727.84
2022-12-24T04:26:15.195Z,96729.06
2022-12-24T04:28:42.289Z,96730.81
2022-12-24T04:31:14.642Z,96724.63
2022-12-24T04:33:41.043Z,96733.00
2022-12-24T04:36:08.636Z,96727.69
2022-12-24T04:38:35.320Z,96745.50
2022-12-24T04:41:13.738Z,96728.53
2022-12-24T04:43:42.559Z,96724.06
2022-12-24T04:46:20.038Z,96739.50
2022-12-24T04:48:51.915Z,96743.63
2022-12-24T04:51:18.876Z,96737.22
2022-12-24T04:53:45.960Z,96754.63
2022-12-24T04:56:15.101Z,96749.53
2022-12-24T04:58:41.788Z,96752.63
2022-12-24T05:01:14.839Z,96743.47
2022-12-24T05:03:41.268Z,96745.44
2022-12-24T05:06:10.989Z,96758.44
2022-12-24T05:08:38.274Z,96754.47
2022-12-24T05:11:05.662Z,96760.88
2022-12-24T05:13:42.286Z,96749.59
2022-12-24T05:16:13.696Z,96745.94
2022-12-24T05:18:40.339Z,96751.31
2022-12-24T05:21:11.584Z,96740.31
2022-12-24T05:23:56.885Z,96744.59
2022-12-24T05:26:31.277Z,96747.44
2022-12-24T05:28:59.836Z,96736.44
2022-12-24T05:31:28.152Z,96734.31
2022-12-24T05:33:54.819Z,96740.59
2022-12-24T05:36:22.235Z,96745.16
2022-12-24T05:38:48.795Z,96766.06
2022-12-24T05:41:15.448Z,96761.13
2022-12-24T05:43:41.852Z,96767.06
2022-12-24T05:46:10.071Z,96764.91
2022-12-24T05:48:36.661Z,96767.38
2022-12-24T05:51:09.408Z,96767.03
2022-12-24T05:53:36.778Z,96761.13
2022-12-24T05:56:08.483Z,96761.81
2022-12-24T05:58:35.498Z,96758.00
2022-12-24T06:01:03.692Z,96765.75
2022-12-24T06:03:31.116Z,96771.72
2022-12-24T06:06:03.280Z,96784.97
2022-12-24T06:08:30.456Z,96766.47
2022-12-24T06:10:58.600Z,96766.34
2022-12-24T06:13:25.701Z,96768.44
2022-12-24T06:15:55.987Z,96768.63
2022-12-24T06:18:23.115Z,96775.06
2022-12-24T06:20:54.103Z,96789.91
2022-12-24T06:23:21.853Z,96782.13
2022-12-24T06:25:48.947Z,96786.88
2022-12-24T06:28:15.401Z,96780.41
2022-12-24T06:30:46.263Z,96799.19
2022-12-24T06:33:12.950Z,96787.16
2022-12-24T06:35:39.378Z,96802.91
2022-12-24T06:38:05.762Z,96790.94
2022-12-24T06:40:32.116Z,96795.06
2022-12-24T06:42:58.552Z,96800.53
2022-12-24T06:45:24.905Z,96802.78
2022-12-24T06:47:51.262Z,96799.75
2022-12-24T06:50:17.624Z,96792.75
2022-12-24T06:52:43.993Z,96796.19
2022-12-24T06:55:10.592Z,96810.91
2022-12-24T06:57:36.974Z,96816.56
2022-12-24T07:00:03.720Z,96804.16
2022-12-24T07:02:30.167Z,96811.03
2022-12-24T07:04:56.625Z,96816.97
2022-12-24T07:07:22.959Z,96819.03
2022-12-24T07:09:49.337Z,96815.94
2022-12-24T07:12:15.797Z,96811.03
2022-12-24T07:14:42.151Z,96827.25
2022-12-24T07:17:09.061Z,96827.72
2022-12-24T07:19:35.702Z,96820.25
2022-12-24T07:22:02.105Z,96832.44
2022-12-24T07:24:28.510Z,96835.31
2022-12-24T07:26:54.844Z,96833.28
2022-12-24T07:29:21.285Z,96844.72
2022-12-24T07:31:47.690Z,96840.81
2022-12-24T07:34:14.274Z,96842.94
2022-12-24T07:36:40.631Z,96844.81
2022-12-24T07:39:06.975Z,96843.63
2022-12-24T07:41:37.940Z,96842.22
2022-12-24T07:44:12.284Z,96854.00
2022-12-24T07:46:38.982Z,96860.81
2022-12-24T07:49:05.506Z,96864.84
2022-12-24T07:51:31.862Z,96859.59
2022-12-24T07:53:58.362Z,96869.25
2022-12-24T07:56:24.731Z,96875.03
2022-12-24T07:58:52.142Z,96876.78
2022-12-24T08:01:18.911Z,96888.03
2022-12-24T08:03:45.688Z,96882.63
2022-12-24T08:06:12.188Z,96904.16
2022-12-24T08:08:38.706Z,96899.88
2022-12-24T08:11:06.801Z,96907.00
2022-12-24T08:13:33.426Z,96912.75
2022-12-24T08:16:00.128Z,96911.22
2022-12-24T08:18:26.958Z,96907.28
2022-12-24T08:20:53.341Z,96899.03
2022-12-24T08:23:19.753Z,96897.78
2022-12-24T08:25:48.093Z,96906.28
2022-12-24T08:28:17.425Z,96909.47
2022-12-24T08:30:44.551Z,96909.66
2022-12-24T08:33:11.118Z,96915.59
2022-12-24T08:35:37.586Z,96919.34
2022-12-24T08:38:03.975Z,96906.41
2022-12-24T08:40:30.391Z,96926.34
2022-12-24T08:42:56.851Z,96935.66
2022-12-24T08:45:23.300Z,96942.97
2022-12-24T08:47:49.685Z,96931.47
2022-12-24T08:50:16.239Z,96937.34
2022-12-24T08:52:42.684Z,96937.34
2022-12-24T08:55:09.626Z,96938.41
2022-12-24T08:57:37.304Z,96942.34
2022-12-24T09:00:05.952Z,96943.22
2022-12-24T09:02:32.425Z,96951.38
2022-12-24T09:04:58.902Z,96966.16
2022-12-24T09:07:25.317Z,96965.56
2022-12-24T09:09:51.705Z,96956.94
2022-12-24T09:12:18.052Z,96958.50
2022-12-24T09:14:44.419Z,96958.97
2022-12-24T09:17:10.762Z,96960.31
2022-12-24T09:19:37.270Z,96973.25
2022-12-24T09:22:03.658Z,96971.31
2022-12-24T09:24:30.006Z,96969.50
2022-12-24T09:26:58.131Z,96966.06
2022-12-24T09:29:25.117Z,96972.31
2022-12-24T09:31:51.740Z,96989.09
2022-12-24T09:34:18.204Z,96998.66
2022-12-24T09:36:46.101Z,96990.91
2022-12-24T09:39:13.126Z,96999.44
2022-12-24T09:41:57.468Z,97018.22
2022-12-24T09:44:42.736Z,97013.72
2022-12-24T09:47:32.498Z,97019.72
2022-12-24T09:50:03.466Z,97022.09
2022-12-24T09:52:35.132Z,97010.50
2022-12-24T09:55:08.159Z,97025.13
2022-12-24T09:57:41.396Z,97004.22
2022-12-24T10:00:22.840Z,97031.56
2022-12-24T10:02:49.751Z,97021.38
2022-12-24T10:05:18.521Z,97026.66
2022-12-24T10:08:06.876Z,97035.38
2022-12-24T10:10:44.961Z,97033.94
2022-12-24T10:13:16.445Z,97049.31
2022-12-24T10:16:03.305Z,97043.06
2022-12-24T10:18:48.834Z,97035.13
2022-12-24T10:21:21.633Z,97043.53
2022-12-24T10:23:55.586Z,97041.41
2022-12-24T10:26:37.941Z,97033.00
2022-12-24T10:29:17.835Z,97030.53
2022-12-24T10:32:24.967Z,97038.69
2022-12-24T10:35:08.332Z,97033.63
2022-12-24T10:37:34.856Z,97030.56
2022-12-24T10:40:03.036Z,97037.69
2022-12-24T10:42:50.744Z,97029.59
2022-12-24T10:45:21.384Z,97024.66
2022-12-24T10:47:51.356Z,97030.19
2022-12-24T10:50:33.783Z,97029.72
2022-12-24T10:53:23.462Z,97020.25
2022-12-24T10:55:49.984Z,97037.44
2022-12-24T10:58:19.485Z,97026.59
2022-12-24T11:00:53.479Z,97042.06
2022-12-24T11:03:30.180Z,97041.72
2022-12-24T11:06:02.626Z,97046.66
2022-12-24T11:08:29.006Z,97042.19
2022-12-24T11:10:56.673Z,97045.28
2022-12-24T11:13:37.559Z,97043.28
2022-12-24T11:16:06.802Z,97047.69
2022-12-24T11:18:36.996Z,97051.19
2022-12-24T11:21:04.877Z,97045.19
2022-12-24T11:23:31.646Z,97040.13
2022-12-24T11:25:58.522Z,97045.66
2022-12-24T11:28:28.504Z,97043.53
2022-12-24T11:30:59.110Z,97044.91
2022-12-24T11:33:25.634Z,97042.34
2022-12-24T11:35:56.160Z,97033.22
2022-12-24T11:38:25.895Z,97038.22
2022-12-24T11:41:05.147Z,97053.97
2022-12-24T11:43:44.763Z,97046.53
2022-12-24T11:46:20.913Z,97042.81
2022-12-24T11:48:47.989Z,97043.88
2022-12-24T11:51:25.868Z,97033.97
2022-12-24T11:54:13.675Z,97045.19
2022-12-24T11:56:47.268Z,97035.09
2022-12-24T11:59:33.268Z,97034.25
2022-12-24T12:02:25.884Z,97036.38
2022-12-24T12:04:57.940Z,97039.09
2022-12-24T12:07:30.689Z,97036.19
2022-12-24T12:10:14.870Z,97047.19
2022-12-24T12:12:45.269Z,97040.66
2022-12-24T12:15:17.201Z,97051.34
2022-12-24T12:17:56.722Z,97042.03
2022-12-24T12:20:31.204Z,97048.31
2022-12-24T12:23:16.422Z,97049.81
2022-12-24T12:25:51.899Z,97050.66
2022-12-24T12:28:28.648Z,97052.34
2022-12-24T12:31:34.075Z,97052.94
2022-12-24T12:34:09.537Z,97058.25
2022-12-24T12:36:42.592Z,97047.81
2022-12-24T12:39:10.794Z,97060.53
2022-12-24T12:42:12.881Z,97057.31
2022-12-24T12:44:57.589Z,97070.38
2022-12-24T12:47:42.657Z,97074.22
2022-12-24T12:50:35.489Z,97074.69
2022-12-24T12:53:26.765Z,97065.78
2022-12-24T12:56:11.091Z,97063.28
2022-12-24T12:58:43.724Z,97060.94
2022-12-24T13:01:32.006Z,97050.84
2022-12-24T13:04:09.228Z,97071.78
2022-12-24T13:07:03.720Z,97061.81
2022-12-24T13:09:58.137Z,97063.06
2022-12-24T13:13:06.324Z,97069.03
2022-12-24T13:15:56.653Z,97080.31
2022-12-24T13:18:33.489Z,97078.69
2022-12-24T13:21:00.423Z,97069.63
2022-12-24T13:23:28.174Z,97074.88
2022-12-24T13:25:57.507Z,97074.69
2022-12-24T13:28:23.939Z,97077.78
2022-12-24T13:31:02.625Z,97067.38
2022-12-24T13:33:38.110Z,97074.84
2022-12-24T13:36:07.636Z,97076.81
2022-12-24T13:38:44.264Z,97074.34
2022-12-24T13:41:41.456Z,97077.06
2022-12-24T13:44:17.414Z,97078.78
2022-12-24T13:46:58.869Z,97078.16
2022-12-24T13:49:36.142Z,97079.47
2022-12-24T13:52:11.426Z,97085.69
2022-12-24T13:54:49.054Z,97075.84
2022-12-24T13:57:40.151Z,97082.88
2022-12-24T14:00:12.739Z,97082.22
2022-12-24T14:02:48.518Z,97073.59
2022-12-24T14:05:25.508Z,97086.91
2022-12-24T14:07:54.131Z,97090.13
2022-12-24T14:10:25.456Z,97094.69
2022-12-24T14:12:53.084Z,97099.88
2022-12-24T14:15:50.545Z,97106.03
2022-12-24T14:18:22.609Z,97091.38
2022-12-24T14:20:54.365Z,97090.13
2022-12-24T14:23:57.351Z,97097.78
2022-12-24T14:26:30.086Z,97093.19
2022-12-24T14:29:00.844Z,97095.31
2022-12-24T14:31:27.511Z,97092.81
2022-12-24T14:34:06.829Z,97093.09
2022-12-24T14:36:34.212Z,97088.22
2022-12-24T14:39:01.277Z,97100.78
2022-12-24T14:41:54.241Z,97105.28
2022-12-24T14:45:04.136Z,97100.69
2022-12-24T14:47:37.500Z,97109.25
2022-12-24T14:50:24.359Z,97117.09
2022-12-24T14:53:09.462Z,97117.34
2022-12-24T14:55:43.174Z,97110.94
2022-12-24T14:58:26.113Z,97132.41
2022-12-24T15:00:56.227Z,97131.25
2022-12-24T15:03:27.265Z,97126.47
2022-12-24T15:05:57.166Z,97128.41
2022-12-24T15:08:45.552Z,97134.34
2022-12-24T15:11:18.239Z,97151.94
2022-12-24T15:13:49.173Z,97137.22
2022-12-24T15:16:24.436Z,97145.84
2022-12-24T15:18:57.229Z,97148.06
2022-12-24T15:21:31.000Z,97157.47
2022-12-24T15:23:58.226Z,97162.75
2022-12-24T15:26:30.463Z,97164.66
2022-12-24T15:29:03.218Z,97158.31
2022-12-24T15:31:31.123Z,97161.97
2022-12-24T15:33:59.266Z,97169.59
2022-12-24T15:36:35.179Z,97160.09
2022-12-24T15:39:05.661Z,97157.38
2022-12-24T15:41:58.792Z,97167.50
2022-12-24T15:44:25.738Z,97175.06
2022-12-24T15:46:59.037Z,97180.44
2022-12-24T15:49:28.054Z,97174.44
2022-12-24T15:52:09.460Z,97181.66
2022-12-24T15:54:36.198Z,97178.78
2022-12-24T15:57:33.289Z,97188.66
2022-12-24T16:00:01.492Z,97179.44
2022-12-24T16:02:42.019Z,97179.06
2022-12-24T16:05:28.911Z,97173.28
2022-12-24T16:08:15.041Z,97166.53
2022-12-24T16:10:44.074Z,97178.81
2022-12-24T16:13:14.624Z,97178.47
2022-12-24T16:15:53.827Z,97194.53
2022-12-24T16:18:26.506Z,97192.00
2022-12-24T16:20:55.384Z,97187.13
2022-12-24T16:23:25.426Z,97180.94
2022-12-24T16:25:52.912Z,97187.69
2022-12-24T16:28:22.916Z,97180.28
2022-12-24T16:30:49.855Z,97181.59
2022-12-24T16:33:20.412Z,97180.84
2022-12-24T16:35:47.490Z,97182.03
2022-12-24T16:38:14.208Z,97181.81
2022-12-24T16:40:41.784Z,97174.84
2022-12-24T16:43:28.569Z,97189.88
2022-12-24T16:46:00.951Z,97191.94
2022-12-24T16:48:27.692Z,97181.41
2022-12-24T16:50:54.083Z,97192.94
2022-12-24T16:53:22.401Z,97191.94
2022-12-24T16:55:51.115Z,97181.56
2022-12-24T16:58:18.536Z,97196.38
2022-12-24T17:00:45.457Z,97183.06
2022-12-24T17:03:12.261Z,97181.56
2022-12-24T17:05:40.235Z,97192.31
2022-12-24T17:08:07.266Z,97192.16
2022-12-24T17:10:33.870Z,97203.81
2022-12-24T17:13:01.056Z,97206.41
2022-12-24T17:15:27.585Z,97192.69
2022-12-24T17:17:53.946Z,97207.16
2022-12-24T17:20:23.979Z,97205.34
2022-12-24T17:22:51.038Z,97203.25
2022-12-24T17:25:17.436Z,97222.59
2022-12-24T17:27:43.821Z,97223.38
2022-12-24T17:30:10.494Z,97223.94
2022-12-24T17:32:37.397Z,97223.84
2022-12-24T17:35:04.079Z,97218.47
2022-12-24T17:37:30.471Z,97234.19
2022-12-24T17:39:57.006Z,97235.94
2022-12-24T17:42:23.465Z,97233.16
2022-12-24T17:44:49.825Z,97227.47
2022-12-24T17:47:16.363Z,97237.41
2022-12-24T17:49:42.751Z,97238.47
2022-12-24T17:52:09.138Z,97229.59
2022-12-24T17:54:35.549Z,97227.09
2022-12-24T17:57:01.922Z,97235.00
2022-12-24T17:59:28.270Z,97218.41
2022-12-24T18:01:54.784Z,97216.97
2022-12-24T18:04:21.524Z,97210.09
2022-12-24T18:06:49.723Z,97213.53
2022-12-24T18:09:16.799Z,97186.84
2022-12-24T18:11:43.253Z,97188.38
2022-12-24T18:14:13.836Z,97183.50
2022-12-24T18:16:41.204Z,97193.56
2022-12-24T18:19:10.351Z,97203.13
2022-12-24T18:21:37.190Z,97183.63
2022-12-24T18:24:04.646Z,97194.34
2022-12-24T18:26:33.105Z,97193.56
2022-12-24T18:29:01.755Z,97197.06
2022-12-24T18:31:29.650Z,97204.03
2022-12-24T18:33:56.485Z,97222.91
2022-12-24T18:36:23.930Z,97223.53
2022-12-24T18:38:50.863Z,97229.97
2022-12-24T18:41:24.484Z,97214.38
2022-12-24T18:43:51.634Z,97226.56
2022-12-24T18:46:26.758Z,97237.09
2022-12-24T18:48:54.784Z,97237.41
2022-12-24T18:51:22.518Z,97236.41
2022-12-24T18:53:50.305Z,97236.41
2022-12-24T18:56:22.735Z,97235.97
2022-12-24T18:58:51.798Z,97244.03
2022-12-24T19:01:24.107Z,97242.97
2022-12-24T19:03:51.252Z,97247.59
2022-12-24T19:06:18.905Z,97249.34
2022-12-24T19:08:56.916Z,97262.69
2022-12-24T19:11:24.400Z,97261.28
2022-12-24T19:13:51.665Z,97267.78
2022-12-24T19:16:18.760Z,97277.56
2022-12-24T19:18:45.228Z,97268.25
2022-12-24T19:21:15.021Z,97277.56
2022-12-24T19:23:41.414Z,97273.13
2022-12-24T19:26:09.385Z,97268.56
2022-12-24T19:28:35.744Z,97272.84
2022-12-24T19:31:07.188Z,97274.34
2022-12-24T19:33:43.152Z,97267.06
2022-12-24T19:36:14.324Z,97262.13
2022-12-24T19:38:41.422Z,97263.94
2022-12-24T19:41:12.539Z,97257.44
2022-12-24T19:43:41.244Z,97254.31
2022-12-24T19:46:12.577Z,97250.13
2022-12-24T19:48:39.090Z,97267.13
2022-12-24T19:51:08.268Z,97260.69
2022-12-24T19:53:35.132Z,97266.97
2022-12-24T19:56:02.178Z,97263.00
2022-12-24T19:58:29.324Z,97257.84
2022-12-24T20:00:55.808Z,97248.66
2022-12-24T20:03:22.236Z,97241.47
2022-12-24T20:05:48.634Z,97245.91
2022-12-24T20:08:14.979Z,97253.53
2022-12-24T20:10:43.907Z,97253.31
2022-12-24T20:13:10.916Z,97243.81
2022-12-24T20:15:41.577Z,97253.59
2022-12-24T20:18:09.239Z,97247.50
2022-12-24T20:20:36.007Z,97253.44
2022-12-24T20:23:02.755Z,97251.97
2022-12-24T20:25:29.252Z,97259.66
2022-12-24T20:27:55.774Z,97261.97
2022-12-24T20:30:22.198Z,97259.00
2022-12-24T20:32:48.578Z,97265.97
2022-12-24T20:35:14.937Z,97262.00
2022-12-24T20:37:46.175Z,97268.22
2022-12-24T20:40:13.249Z,97276.97
2022-12-24T20:42:39.730Z,97265.13
2022-12-24T20:45:06.820Z,97262.94
2022-12-24T20:47:33.376Z,97254.19
2022-12-24T20:49:59.773Z,97264.28
2022-12-24T20:52:26.142Z,97258.53
2022-12-24T20:54:52.692Z,97271.19
2022-12-24T20:57:25.288Z,97274.25
2022-12-24T20:59:53.250Z,97270.97
2022-12-24T21:02:19.796Z,97274.53
2022-12-24T21:04:46.277Z,97269.63
2022-12-24T21:07:14.337Z,97265.25
2022-12-24T21:09:41.575Z,97262.88
2022-12-24T21:12:29.272Z,97250.72
2022-12-24T21:14:55.795Z,97262.13
2022-12-24T21:17:22.234Z,97255.47
2022-12-24T21:19:48.594Z,97253.19
2022-12-24T21:22:14.971Z,97241.22
2022-12-24T21:24:41.313Z,97234.72
2022-12-24T21:27:07.728Z,97237.53
2022-12-24T21:29:34.059Z,97251.63
2022-12-24T21:32:00.440Z,97241.41
2022-12-24T21:34:26.814Z,97234.13
2022-12-24T21:36:53.164Z,97238.72
2022-12-24T21:39:19.603Z,97234.84
2022-12-24T21:41:46.050Z,97236.88
2022-12-24T21:44:12.399Z,97230.66
2022-12-24T21:46:38.769Z,97230.75
2022-12-24T21:49:23.808Z,97232.03
2022-12-24T21:51:50.211Z,97227.03
2022-12-24T21:54:30.511Z,97226.69
2022-12-24T21:57:40.845Z,97220.06
2022-12-24T22:00:22.990Z,97222.81
2022-12-24T22:02:51.111Z,97227.66
2022-12-24T22:05:18.253Z,97244.25
2022-12-24T22:08:03.146Z,97241.53
2022-12-24T22:10:48.501Z,97255.97
2022-12-24T22:13:14.996Z,97253.22
2022-12-24T22:15:44.795Z,97247.09
2022-12-24T22:18:11.704Z,97239.41
2022-12-24T22:20:39.257Z,97240.00
2022-12-24T22:23:05.984Z,97241.03
2022-12-24T22:25:32.349Z,97254.31
2022-12-24T22:27:59.111Z,97236.97
2022-12-24T22:30:25.514Z,97248.22
2022-12-24T22:32:52.009Z,97258.13
2022-12-24T22:35:18.535Z,97260.88
2022-12-24T22:37:45.062Z,97239.56
2022-12-24T22:40:12.339Z,97254.53
2022-12-24T22:42:38.968Z,97239.66
2022-12-24T22:45:06.014Z,97249.38
2022-12-24T22:47:32.510Z,97250.72
2022-12-24T22:49:58.877Z,97250.53
2022-12-24T22:52:25.345Z,97243.50
2022-12-24T22:54:51.879Z,97252.09
2022-12-24T22:57:18.342Z,97256.88
2022-12-24T22:59:44.828Z,97267.63
2022-12-24T23:02:11.960Z,97252.66
2022-12-24T23:04:40.708Z,97258.53
2022-12-24T23:07:09.635Z,97264.19
2022-12-24T23:09:36.115Z,97264.19
2022-12-24T23:12:02.876Z,97269.97
2022-12-24T23:14:47.942Z,97253.19
2022-12-24T23:17:14.896Z,97242.81
2022-12-24T23:19:41.927Z,97243.56
2022-12-24T23:22:08.315Z,97243.22
2022-12-24T23:24:35.256Z,97247.72
2022-12-24T23:27:01.726Z,97252.13
2022-12-24T23:29:29.630Z,97249.53
2022-12-24T23:31:56.067Z,97244.84
2022-12-24T23:34:22.455Z,97250.78
2022-12-24T23:36:48.845Z,97244.41
2022-12-24T23:39:15.390Z,97247.38
2022-12-24T23:41:41.729Z,97261.19
2022-12-24T23:44:08.290Z,97257.66
2022-12-24T23:46:34.760Z,97267.63
2022-12-24T23:49:01.393Z,97262.31
2022-12-24T23:51:28.440Z,97254.84
2022-12-24T23:53:56.491Z,97265.47
2022-12-24T23:56:24.642Z,97256.75
2022-12-24T23:58:51.764Z,97247.53
